sensor_id;sensor_type;location;lat;lon;timestamp;P1;durP1;ratioP1;P2;durP2;ratioP2
3155;SDS011;1588;50.892;7.082;2022-09-03T00:01:05;2.50;;;1.80;;
3155;SDS011;1588;50.892;7.082;2022-09-03T00:06:17;4.37;;;1.60;;
3155;SDS011;1588;50.892;7.082;2022-09-03T00:11:28;3.37;;;1.90;;
3155;SDS011;1588;50.892;7.082;2022-09-03T00:16:36;1.47;;;1.37;;
3155;SDS011;1588;50.892;7.082;2022-09-03T00:21:46;1.77;;;1.43;;
3155;SDS011;1588;50.892;7.082;2022-09-03T00:26:52;10.53;;;2.27;;
3155;SDS011;1588;50.892;7.082;2022-09-03T00:32:00;1.40;;;1.30;;
3155;SDS011;1588;50.892;7.082;2022-09-03T00:37:08;2.30;;;1.63;;
3155;SDS011;1588;50.892;7.082;2022-09-03T00:42:16;1.67;;;1.40;;
3155;SDS011;1588;50.892;7.082;2022-09-03T00:47:39;2.40;;;1.50;;
3155;SDS011;1588;50.892;7.082;2022-09-03T00:52:53;2.63;;;1.37;;
3155;SDS011;1588;50.892;7.082;2022-09-03T00:58:04;3.27;;;1.90;;
3155;SDS011;1588;50.892;7.082;2022-09-03T01:03:18;4.20;;;1.80;;
3155;SDS011;1588;50.892;7.082;2022-09-03T01:08:30;3.93;;;1.67;;
3155;SDS011;1588;50.892;7.082;2022-09-03T01:13:46;3.40;;;1.80;;
3155;SDS011;1588;50.892;7.082;2022-09-03T01:18:55;3.93;;;1.60;;
3155;SDS011;1588;50.892;7.082;2022-09-03T01:24:12;2.60;;;1.60;;
3155;SDS011;1588;50.892;7.082;2022-09-03T01:29:33;3.40;;;1.57;;
3155;SDS011;1588;50.892;7.082;2022-09-03T01:34:42;1.70;;;1.60;;
3155;SDS011;1588;50.892;7.082;2022-09-03T01:39:57;4.07;;;1.80;;
3155;SDS011;1588;50.892;7.082;2022-09-03T01:45:14;2.20;;;1.83;;
3155;SDS011;1588;50.892;7.082;2022-09-03T01:50:32;2.37;;;2.00;;
3155;SDS011;1588;50.892;7.082;2022-09-03T01:55:43;2.73;;;1.77;;
3155;SDS011;1588;50.892;7.082;2022-09-03T02:01:21;5.80;;;1.87;;
3155;SDS011;1588;50.892;7.082;2022-09-03T02:06:27;2.00;;;1.70;;
3155;SDS011;1588;50.892;7.082;2022-09-03T02:11:31;2.77;;;1.40;;
3155;SDS011;1588;50.892;7.082;2022-09-03T02:16:35;1.77;;;1.67;;
3155;SDS011;1588;50.892;7.082;2022-09-03T02:21:39;2.33;;;1.70;;
3155;SDS011;1588;50.892;7.082;2022-09-03T02:26:48;3.00;;;1.70;;
3155;SDS011;1588;50.892;7.082;2022-09-03T02:31:51;3.67;;;2.03;;
3155;SDS011;1588;50.892;7.082;2022-09-03T02:36:56;1.90;;;1.53;;
3155;SDS011;1588;50.892;7.082;2022-09-03T02:41:58;4.00;;;1.53;;
3155;SDS011;1588;50.892;7.082;2022-09-03T02:47:04;2.37;;;1.47;;
3155;SDS011;1588;50.892;7.082;2022-09-03T02:52:08;1.67;;;1.33;;
3155;SDS011;1588;50.892;7.082;2022-09-03T02:57:13;1.43;;;1.33;;
3155;SDS011;1588;50.892;7.082;2022-09-03T03:02:18;3.47;;;2.40;;
3155;SDS011;1588;50.892;7.082;2022-09-03T03:07:21;3.93;;;1.73;;
3155;SDS011;1588;50.892;7.082;2022-09-03T03:12:43;2.90;;;1.30;;
3155;SDS011;1588;50.892;7.082;2022-09-03T03:17:47;1.50;;;1.40;;
3155;SDS011;1588;50.892;7.082;2022-09-03T03:22:49;3.47;;;1.70;;
3155;SDS011;1588;50.892;7.082;2022-09-03T03:27:53;1.60;;;1.50;;
3155;SDS011;1588;50.892;7.082;2022-09-03T03:32:57;22.50;;;1.90;;
3155;SDS011;1588;50.892;7.082;2022-09-03T03:38:00;2.57;;;1.53;;
3155;SDS011;1588;50.892;7.082;2022-09-03T03:43:03;4.63;;;1.50;;
3155;SDS011;1588;50.892;7.082;2022-09-03T03:48:06;1.57;;;1.47;;
3155;SDS011;1588;50.892;7.082;2022-09-03T03:53:08;1.60;;;1.50;;
3155;SDS011;1588;50.892;7.082;2022-09-03T03:58:11;1.93;;;1.50;;
3155;SDS011;1588;50.892;7.082;2022-09-03T04:03:33;2.50;;;1.80;;
3155;SDS011;1588;50.892;7.082;2022-09-03T04:08:36;2.93;;;2.23;;
3155;SDS011;1588;50.892;7.082;2022-09-03T04:13:40;1.53;;;1.43;;
3155;SDS011;1588;50.892;7.082;2022-09-03T04:18:45;4.10;;;1.60;;
3155;SDS011;1588;50.892;7.082;2022-09-03T04:23:49;2.10;;;1.50;;
3155;SDS011;1588;50.892;7.082;2022-09-03T04:28:52;3.93;;;1.93;;
3155;SDS011;1588;50.892;7.082;2022-09-03T04:34:11;3.53;;;1.60;;
3155;SDS011;1588;50.892;7.082;2022-09-03T04:39:13;5.60;;;1.80;;
3155;SDS011;1588;50.892;7.082;2022-09-03T04:44:15;1.67;;;1.30;;
3155;SDS011;1588;50.892;7.082;2022-09-03T04:49:19;3.63;;;1.43;;
3155;SDS011;1588;50.892;7.082;2022-09-03T04:54:21;1.67;;;1.40;;
3155;SDS011;1588;50.892;7.082;2022-09-03T04:59:23;2.30;;;1.50;;
3155;SDS011;1588;50.892;7.082;2022-09-03T05:04:46;3.97;;;1.60;;
3155;SDS011;1588;50.892;7.082;2022-09-03T05:09:48;1.73;;;1.50;;
3155;SDS011;1588;50.892;7.082;2022-09-03T05:14:50;1.30;;;1.20;;
3155;SDS011;1588;50.892;7.082;2022-09-03T05:19:54;12.87;;;1.87;;
3155;SDS011;1588;50.892;7.082;2022-09-03T05:24:56;1.50;;;1.40;;
3155;SDS011;1588;50.892;7.082;2022-09-03T05:29:59;1.20;;;1.10;;
3155;SDS011;1588;50.892;7.082;2022-09-03T05:35:02;1.50;;;1.40;;
3155;SDS011;1588;50.892;7.082;2022-09-03T05:40:06;7.30;;;1.67;;
3155;SDS011;1588;50.892;7.082;2022-09-03T05:45:11;2.00;;;1.30;;
3155;SDS011;1588;50.892;7.082;2022-09-03T05:50:14;1.47;;;1.30;;
3155;SDS011;1588;50.892;7.082;2022-09-03T05:55:17;1.33;;;1.23;;
3155;SDS011;1588;50.892;7.082;2022-09-03T06:00:19;4.50;;;1.50;;
3155;SDS011;1588;50.892;7.082;2022-09-03T06:05:23;2.20;;;1.30;;
3155;SDS011;1588;50.892;7.082;2022-09-03T06:10:25;1.60;;;1.50;;
3155;SDS011;1588;50.892;7.082;2022-09-03T06:15:27;1.40;;;1.30;;
3155;SDS011;1588;50.892;7.082;2022-09-03T06:20:31;3.37;;;1.47;;
3155;SDS011;1588;50.892;7.082;2022-09-03T06:25:34;2.43;;;1.57;;
3155;SDS011;1588;50.892;7.082;2022-09-03T06:30:36;1.87;;;1.67;;
3155;SDS011;1588;50.892;7.082;2022-09-03T06:35:39;1.67;;;1.30;;
3155;SDS011;1588;50.892;7.082;2022-09-03T06:40:42;6.20;;;1.47;;
3155;SDS011;1588;50.892;7.082;2022-09-03T06:45:55;2.37;;;1.80;;
3155;SDS011;1588;50.892;7.082;2022-09-03T06:51:00;2.67;;;1.47;;
3155;SDS011;1588;50.892;7.082;2022-09-03T06:56:04;9.43;;;1.67;;
3155;SDS011;1588;50.892;7.082;2022-09-03T07:01:08;1.60;;;1.47;;
3155;SDS011;1588;50.892;7.082;2022-09-03T07:06:14;3.97;;;1.57;;
3155;SDS011;1588;50.892;7.082;2022-09-03T07:11:18;1.40;;;1.30;;
3155;SDS011;1588;50.892;7.082;2022-09-03T07:16:23;1.50;;;1.40;;
3155;SDS011;1588;50.892;7.082;2022-09-03T07:21:28;1.40;;;1.30;;
3155;SDS011;1588;50.892;7.082;2022-09-03T07:26:34;1.70;;;1.33;;
3155;SDS011;1588;50.892;7.082;2022-09-03T07:31:56;6.43;;;1.77;;
3155;SDS011;1588;50.892;7.082;2022-09-03T07:37:00;1.57;;;1.30;;
3155;SDS011;1588;50.892;7.082;2022-09-03T07:42:05;3.13;;;1.83;;
3155;SDS011;1588;50.892;7.082;2022-09-03T07:47:10;3.33;;;1.40;;
3155;SDS011;1588;50.892;7.082;2022-09-03T07:52:14;1.97;;;1.30;;
3155;SDS011;1588;50.892;7.082;2022-09-03T07:57:21;2.07;;;1.30;;
3155;SDS011;1588;50.892;7.082;2022-09-03T08:02:23;2.53;;;1.53;;
3155;SDS011;1588;50.892;7.082;2022-09-03T08:07:28;1.47;;;1.37;;
3155;SDS011;1588;50.892;7.082;2022-09-03T08:12:31;2.40;;;1.40;;
3155;SDS011;1588;50.892;7.082;2022-09-03T08:17:33;1.93;;;1.30;;
3155;SDS011;1588;50.892;7.082;2022-09-03T08:22:36;1.53;;;1.43;;
3155;SDS011;1588;50.892;7.082;2022-09-03T08:27:38;11.80;;;1.77;;
3155;SDS011;1588;50.892;7.082;2022-09-03T08:32:45;2.80;;;1.60;;
3155;SDS011;1588;50.892;7.082;2022-09-03T08:37:48;2.03;;;1.80;;
3155;SDS011;1588;50.892;7.082;2022-09-03T08:42:56;2.00;;;1.70;;
3155;SDS011;1588;50.892;7.082;2022-09-03T08:48:09;3.80;;;1.80;;
3155;SDS011;1588;50.892;7.082;2022-09-03T08:53:19;2.30;;;1.90;;
3155;SDS011;1588;50.892;7.082;2022-09-03T08:58:28;4.93;;;1.83;;
3155;SDS011;1588;50.892;7.082;2022-09-03T09:03:41;2.40;;;1.73;;
3155;SDS011;1588;50.892;7.082;2022-09-03T09:08:53;1.77;;;1.67;;
3155;SDS011;1588;50.892;7.082;2022-09-03T09:14:05;6.27;;;2.20;;
3155;SDS011;1588;50.892;7.082;2022-09-03T09:19:17;9.10;;;2.50;;
3155;SDS011;1588;50.892;7.082;2022-09-03T09:24:34;5.50;;;2.23;;
3155;SDS011;1588;50.892;7.082;2022-09-03T09:29:40;4.40;;;2.23;;
3155;SDS011;1588;50.892;7.082;2022-09-03T09:34:42;5.77;;;2.60;;
3155;SDS011;1588;50.892;7.082;2022-09-03T09:39:54;4.73;;;2.53;;
3155;SDS011;1588;50.892;7.082;2022-09-03T09:45:07;3.67;;;2.47;;
3155;SDS011;1588;50.892;7.082;2022-09-03T09:50:15;2.60;;;2.40;;
3155;SDS011;1588;50.892;7.082;2022-09-03T09:55:22;3.87;;;2.63;;
3155;SDS011;1588;50.892;7.082;2022-09-03T10:00:33;2.77;;;2.40;;
3155;SDS011;1588;50.892;7.082;2022-09-03T10:05:37;3.23;;;1.90;;
3155;SDS011;1588;50.892;7.082;2022-09-03T10:10:41;2.47;;;1.97;;
3155;SDS011;1588;50.892;7.082;2022-09-03T10:15:50;2.80;;;2.27;;
3155;SDS011;1588;50.892;7.082;2022-09-03T10:21:00;2.00;;;1.90;;
3155;SDS011;1588;50.892;7.082;2022-09-03T10:26:08;2.17;;;1.90;;
3155;SDS011;1588;50.892;7.082;2022-09-03T10:36:41;2.53;;;1.73;;
3155;SDS011;1588;50.892;7.082;2022-09-03T10:41:54;9.30;;;2.13;;
3155;SDS011;1588;50.892;7.082;2022-09-03T10:47:10;2.30;;;1.83;;
3155;SDS011;1588;50.892;7.082;2022-09-03T10:52:26;2.33;;;2.13;;
3155;SDS011;1588;50.892;7.082;2022-09-03T10:57:36;2.47;;;2.13;;
3155;SDS011;1588;50.892;7.082;2022-09-03T11:02:53;2.27;;;2.07;;
3155;SDS011;1588;50.892;7.082;2022-09-03T11:08:20;3.20;;;2.10;;
3155;SDS011;1588;50.892;7.082;2022-09-03T11:13:28;2.40;;;2.20;;
3155;SDS011;1588;50.892;7.082;2022-09-03T11:18:36;4.67;;;2.23;;
3155;SDS011;1588;50.892;7.082;2022-09-03T11:23:44;2.30;;;2.07;;
3155;SDS011;1588;50.892;7.082;2022-09-03T11:28:51;3.23;;;2.30;;
3155;SDS011;1588;50.892;7.082;2022-09-03T11:34:00;3.13;;;2.50;;
3155;SDS011;1588;50.892;7.082;2022-09-03T11:39:13;4.00;;;2.70;;
3155;SDS011;1588;50.892;7.082;2022-09-03T11:44:21;5.53;;;2.70;;
3155;SDS011;1588;50.892;7.082;2022-09-03T11:49:26;2.53;;;2.30;;
3155;SDS011;1588;50.892;7.082;2022-09-03T11:54:30;2.47;;;2.27;;
3155;SDS011;1588;50.892;7.082;2022-09-03T11:59:34;2.50;;;2.30;;
3155;SDS011;1588;50.892;7.082;2022-09-03T12:04:38;2.67;;;2.47;;
3155;SDS011;1588;50.892;7.082;2022-09-03T12:09:48;2.47;;;2.30;;
3155;SDS011;1588;50.892;7.082;2022-09-03T12:15:16;2.60;;;2.40;;
3155;SDS011;1588;50.892;7.082;2022-09-03T12:20:29;2.53;;;2.33;;
3155;SDS011;1588;50.892;7.082;2022-09-03T12:25:31;3.10;;;2.60;;
3155;SDS011;1588;50.892;7.082;2022-09-03T12:30:35;2.70;;;2.50;;
3155;SDS011;1588;50.892;7.082;2022-09-03T12:35:38;2.50;;;2.30;;
3155;SDS011;1588;50.892;7.082;2022-09-03T12:40:41;5.13;;;2.50;;
3155;SDS011;1588;50.892;7.082;2022-09-03T12:45:45;4.17;;;2.50;;
3155;SDS011;1588;50.892;7.082;2022-09-03T12:50:59;2.50;;;2.30;;
3155;SDS011;1588;50.892;7.082;2022-09-03T12:56:03;3.13;;;2.60;;
3155;SDS011;1588;50.892;7.082;2022-09-03T13:01:07;5.73;;;2.63;;
3155;SDS011;1588;50.892;7.082;2022-09-03T13:06:13;3.90;;;2.50;;
3155;SDS011;1588;50.892;7.082;2022-09-03T13:11:19;4.57;;;2.90;;
3155;SDS011;1588;50.892;7.082;2022-09-03T13:16:45;2.90;;;2.40;;
3155;SDS011;1588;50.892;7.082;2022-09-03T13:22:03;4.13;;;2.80;;
3155;SDS011;1588;50.892;7.082;2022-09-03T13:27:14;3.00;;;2.23;;
3155;SDS011;1588;50.892;7.082;2022-09-03T13:32:53;2.90;;;2.70;;
3155;SDS011;1588;50.892;7.082;2022-09-03T13:38:07;4.87;;;2.70;;
3155;SDS011;1588;50.892;7.082;2022-09-03T13:43:25;3.60;;;2.70;;
3155;SDS011;1588;50.892;7.082;2022-09-03T13:48:34;3.40;;;2.90;;
3155;SDS011;1588;50.892;7.082;2022-09-03T13:54:01;3.50;;;2.50;;
3155;SDS011;1588;50.892;7.082;2022-09-03T13:59:10;3.37;;;2.77;;
3155;SDS011;1588;50.892;7.082;2022-09-03T14:04:24;3.93;;;2.67;;
3155;SDS011;1588;50.892;7.082;2022-09-03T14:09:46;3.70;;;3.00;;
3155;SDS011;1588;50.892;7.082;2022-09-03T14:14:59;5.17;;;3.00;;
3155;SDS011;1588;50.892;7.082;2022-09-03T14:20:10;11.70;;;2.70;;
3155;SDS011;1588;50.892;7.082;2022-09-03T14:25:17;2.60;;;2.40;;
3155;SDS011;1588;50.892;7.082;2022-09-03T14:30:27;2.70;;;2.50;;
3155;SDS011;1588;50.892;7.082;2022-09-03T14:35:46;5.27;;;3.13;;
3155;SDS011;1588;50.892;7.082;2022-09-03T14:41:05;2.40;;;2.20;;
3155;SDS011;1588;50.892;7.082;2022-09-03T14:46:31;9.50;;;2.70;;
3155;SDS011;1588;50.892;7.082;2022-09-03T14:51:53;5.07;;;2.50;;
3155;SDS011;1588;50.892;7.082;2022-09-03T15:08:46;2.97;;;2.50;;
3155;SDS011;1588;50.892;7.082;2022-09-03T15:13:59;5.13;;;2.40;;
3155;SDS011;1588;50.892;7.082;2022-09-03T15:19:12;7.40;;;2.90;;
3155;SDS011;1588;50.892;7.082;2022-09-03T15:24:34;2.63;;;2.30;;
3155;SDS011;1588;50.892;7.082;2022-09-03T15:29:48;2.90;;;2.60;;
3155;SDS011;1588;50.892;7.082;2022-09-03T15:35:03;5.13;;;2.30;;
3155;SDS011;1588;50.892;7.082;2022-09-03T15:40:15;2.40;;;2.20;;
3155;SDS011;1588;50.892;7.082;2022-09-03T15:45:28;3.77;;;1.97;;
3155;SDS011;1588;50.892;7.082;2022-09-03T15:50:48;3.83;;;2.00;;
3155;SDS011;1588;50.892;7.082;2022-09-03T15:56:01;4.90;;;2.20;;
3155;SDS011;1588;50.892;7.082;2022-09-03T16:01:25;4.53;;;2.70;;
3155;SDS011;1588;50.892;7.082;2022-09-03T16:06:37;4.07;;;1.97;;
3155;SDS011;1588;50.892;7.082;2022-09-03T16:11:52;3.60;;;2.10;;
3155;SDS011;1588;50.892;7.082;2022-09-03T16:17:02;24.60;;;3.00;;
3155;SDS011;1588;50.892;7.082;2022-09-03T16:22:11;5.90;;;3.00;;
3155;SDS011;1588;50.892;7.082;2022-09-03T16:27:21;35.70;;;4.30;;
3155;SDS011;1588;50.892;7.082;2022-09-03T16:32:28;70.37;;;5.77;;
3155;SDS011;1588;50.892;7.082;2022-09-03T16:37:44;7.33;;;2.50;;
3155;SDS011;1588;50.892;7.082;2022-09-03T16:43:01;7.90;;;2.73;;
3155;SDS011;1588;50.892;7.082;2022-09-03T16:48:11;19.57;;;3.90;;
3155;SDS011;1588;50.892;7.082;2022-09-03T16:53:25;18.30;;;3.83;;
3155;SDS011;1588;50.892;7.082;2022-09-03T16:58:40;11.80;;;3.80;;
3155;SDS011;1588;50.892;7.082;2022-09-03T17:04:04;42.20;;;3.90;;
3155;SDS011;1588;50.892;7.082;2022-09-03T17:09:26;16.20;;;4.60;;
3155;SDS011;1588;50.892;7.082;2022-09-03T17:14:44;9.30;;;4.67;;
3155;SDS011;1588;50.892;7.082;2022-09-03T17:20:00;10.87;;;4.80;;
3155;SDS011;1588;50.892;7.082;2022-09-03T17:25:13;4.43;;;3.20;;
3155;SDS011;1588;50.892;7.082;2022-09-03T17:30:27;5.97;;;3.37;;
3155;SDS011;1588;50.892;7.082;2022-09-03T17:35:40;6.20;;;3.77;;
3155;SDS011;1588;50.892;7.082;2022-09-03T17:40:53;5.80;;;2.80;;
3155;SDS011;1588;50.892;7.082;2022-09-03T17:46:08;4.47;;;3.30;;
3155;SDS011;1588;50.892;7.082;2022-09-03T17:51:27;3.07;;;2.50;;
3155;SDS011;1588;50.892;7.082;2022-09-03T17:56:41;3.00;;;2.53;;
3155;SDS011;1588;50.892;7.082;2022-09-03T18:01:49;3.20;;;2.37;;
3155;SDS011;1588;50.892;7.082;2022-09-03T18:06:55;4.40;;;2.90;;
3155;SDS011;1588;50.892;7.082;2022-09-03T18:12:08;8.87;;;2.80;;
3155;SDS011;1588;50.892;7.082;2022-09-03T18:17:24;4.23;;;2.30;;
3155;SDS011;1588;50.892;7.082;2022-09-03T18:22:33;3.83;;;2.80;;
3155;SDS011;1588;50.892;7.082;2022-09-03T18:28:00;5.90;;;2.80;;
3155;SDS011;1588;50.892;7.082;2022-09-03T18:33:25;5.63;;;2.40;;
3155;SDS011;1588;50.892;7.082;2022-09-03T18:38:45;4.93;;;2.80;;
3155;SDS011;1588;50.892;7.082;2022-09-03T18:44:21;5.67;;;2.93;;
3155;SDS011;1588;50.892;7.082;2022-09-03T18:49:55;6.70;;;2.90;;
3155;SDS011;1588;50.892;7.082;2022-09-03T18:55:25;3.53;;;2.80;;
3155;SDS011;1588;50.892;7.082;2022-09-03T19:00:56;4.73;;;2.60;;
3155;SDS011;1588;50.892;7.082;2022-09-03T19:06:25;4.60;;;2.80;;
3155;SDS011;1588;50.892;7.082;2022-09-03T19:11:55;5.20;;;2.90;;
3155;SDS011;1588;50.892;7.082;2022-09-03T19:17:22;3.10;;;2.73;;
3155;SDS011;1588;50.892;7.082;2022-09-03T19:22:50;4.20;;;3.20;;
3155;SDS011;1588;50.892;7.082;2022-09-03T19:28:14;3.70;;;2.83;;
3155;SDS011;1588;50.892;7.082;2022-09-03T19:33:37;7.73;;;3.70;;
3155;SDS011;1588;50.892;7.082;2022-09-03T19:39:10;5.57;;;3.33;;
3155;SDS011;1588;50.892;7.082;2022-09-03T19:44:41;5.67;;;3.73;;
3155;SDS011;1588;50.892;7.082;2022-09-03T19:50:10;3.70;;;3.10;;
3155;SDS011;1588;50.892;7.082;2022-09-03T19:55:37;4.50;;;3.10;;
3155;SDS011;1588;50.892;7.082;2022-09-03T20:01:03;5.07;;;3.67;;
3155;SDS011;1588;50.892;7.082;2022-09-03T20:06:23;4.80;;;3.23;;
3155;SDS011;1588;50.892;7.082;2022-09-03T20:11:44;5.33;;;3.77;;
3155;SDS011;1588;50.892;7.082;2022-09-03T20:17:00;5.70;;;4.10;;
3155;SDS011;1588;50.892;7.082;2022-09-03T20:22:14;5.47;;;3.67;;
3155;SDS011;1588;50.892;7.082;2022-09-03T20:27:25;4.67;;;3.40;;
3155;SDS011;1588;50.892;7.082;2022-09-03T20:32:42;6.43;;;3.80;;
3155;SDS011;1588;50.892;7.082;2022-09-03T20:37:59;5.13;;;3.77;;
3155;SDS011;1588;50.892;7.082;2022-09-03T20:43:21;5.20;;;3.27;;
3155;SDS011;1588;50.892;7.082;2022-09-03T20:48:38;5.50;;;3.90;;
3155;SDS011;1588;50.892;7.082;2022-09-03T20:54:03;6.23;;;4.27;;
3155;SDS011;1588;50.892;7.082;2022-09-03T20:59:12;6.30;;;4.80;;
3155;SDS011;1588;50.892;7.082;2022-09-03T21:04:30;8.53;;;4.10;;
3155;SDS011;1588;50.892;7.082;2022-09-03T21:09:42;6.37;;;4.37;;
3155;SDS011;1588;50.892;7.082;2022-09-03T21:14:56;6.40;;;4.57;;
3155;SDS011;1588;50.892;7.082;2022-09-03T21:20:07;6.53;;;3.93;;
3155;SDS011;1588;50.892;7.082;2022-09-03T21:25:22;6.10;;;4.10;;
3155;SDS011;1588;50.892;7.082;2022-09-03T21:30:29;4.60;;;3.50;;
3155;SDS011;1588;50.892;7.082;2022-09-03T21:35:37;4.90;;;3.90;;
3155;SDS011;1588;50.892;7.082;2022-09-03T21:40:45;6.00;;;4.33;;
3155;SDS011;1588;50.892;7.082;2022-09-03T21:45:55;6.70;;;4.80;;
3155;SDS011;1588;50.892;7.082;2022-09-03T21:51:05;6.43;;;3.63;;
3155;SDS011;1588;50.892;7.082;2022-09-03T22:01:53;6.60;;;4.33;;
3155;SDS011;1588;50.892;7.082;2022-09-03T22:07:04;7.60;;;4.80;;
3155;SDS011;1588;50.892;7.082;2022-09-03T22:12:13;10.77;;;5.03;;
3155;SDS011;1588;50.892;7.082;2022-09-03T22:17:32;6.33;;;4.30;;
3155;SDS011;1588;50.892;7.082;2022-09-03T22:22:46;5.67;;;4.43;;
3155;SDS011;1588;50.892;7.082;2022-09-03T22:27:55;9.83;;;4.93;;
3155;SDS011;1588;50.892;7.082;2022-09-03T22:33:09;11.63;;;4.50;;
3155;SDS011;1588;50.892;7.082;2022-09-03T22:38:23;8.77;;;4.70;;
3155;SDS011;1588;50.892;7.082;2022-09-03T22:43:48;8.27;;;5.10;;
3155;SDS011;1588;50.892;7.082;2022-09-03T22:49:08;6.87;;;4.77;;
3155;SDS011;1588;50.892;7.082;2022-09-03T22:54:24;7.20;;;5.23;;
3155;SDS011;1588;50.892;7.082;2022-09-03T22:59:37;11.10;;;5.50;;
3155;SDS011;1588;50.892;7.082;2022-09-03T23:04:45;6.50;;;4.83;;
3155;SDS011;1588;50.892;7.082;2022-09-03T23:09:53;8.90;;;7.03;;
3155;SDS011;1588;50.892;7.082;2022-09-03T23:15:01;7.80;;;5.70;;
3155;SDS011;1588;50.892;7.082;2022-09-03T23:20:08;7.03;;;4.90;;
3155;SDS011;1588;50.892;7.082;2022-09-03T23:25:18;6.27;;;5.33;;
3155;SDS011;1588;50.892;7.082;2022-09-03T23:30:23;8.87;;;5.47;;
3155;SDS011;1588;50.892;7.082;2022-09-03T23:35:28;6.23;;;4.70;;
3155;SDS011;1588;50.892;7.082;2022-09-03T23:40:33;18.30;;;4.87;;
3155;SDS011;1588;50.892;7.082;2022-09-03T23:45:47;7.30;;;5.20;;
3155;SDS011;1588;50.892;7.082;2022-09-03T23:51:02;33.10;;;6.10;;
3155;SDS011;1588;50.892;7.082;2022-09-03T23:56:19;8.50;;;4.70;;
